sensor_id;sensor_type;location;lat;lon;timestamp;P1;durP1;ratioP1;P2;durP2;ratioP2
45728;SDS011;31439;53.512;10.206;2022-08-19T00:00:16;17.48;;;11.60;;
45728;SDS011;31439;53.512;10.206;2022-08-19T00:02:43;13.35;;;10.77;;
45728;SDS011;31439;53.512;10.206;2022-08-19T00:05:10;18.80;;;12.15;;
45728;SDS011;31439;53.512;10.206;2022-08-19T00:07:36;15.73;;;12.38;;
45728;SDS011;31439;53.512;10.206;2022-08-19T00:10:04;17.80;;;12.60;;
45728;SDS011;31439;53.512;10.206;2022-08-19T00:12:31;21.65;;;13.88;;
45728;SDS011;31439;53.512;10.206;2022-08-19T00:14:57;20.60;;;14.05;;
45728;SDS011;31439;53.512;10.206;2022-08-19T00:17:22;17.30;;;13.65;;
45728;SDS011;31439;53.512;10.206;2022-08-19T00:19:48;21.17;;;14.45;;
45728;SDS011;31439;53.512;10.206;2022-08-19T00:22:13;21.27;;;15.50;;
45728;SDS011;31439;53.512;10.206;2022-08-19T00:24:40;21.60;;;15.63;;
45728;SDS011;31439;53.512;10.206;2022-08-19T00:27:08;19.40;;;14.48;;
45728;SDS011;31439;53.512;10.206;2022-08-19T00:29:34;24.08;;;15.30;;
45728;SDS011;31439;53.512;10.206;2022-08-19T00:31:59;17.77;;;14.02;;
45728;SDS011;31439;53.512;10.206;2022-08-19T00:34:25;19.90;;;14.43;;
45728;SDS011;31439;53.512;10.206;2022-08-19T00:36:55;22.42;;;14.77;;
45728;SDS011;31439;53.512;10.206;2022-08-19T00:39:21;21.35;;;15.07;;
45728;SDS011;31439;53.512;10.206;2022-08-19T00:41:47;19.65;;;14.82;;
45728;SDS011;31439;53.512;10.206;2022-08-19T00:44:18;19.35;;;14.98;;
45728;SDS011;31439;53.512;10.206;2022-08-19T00:46:46;19.85;;;15.25;;
45728;SDS011;31439;53.512;10.206;2022-08-19T00:49:33;20.33;;;14.90;;
45728;SDS011;31439;53.512;10.206;2022-08-19T00:52:09;20.00;;;15.25;;
45728;SDS011;31439;53.512;10.206;2022-08-19T00:54:38;19.55;;;15.57;;
45728;SDS011;31439;53.512;10.206;2022-08-19T00:57:06;21.52;;;16.50;;
45728;SDS011;31439;53.512;10.206;2022-08-19T00:59:35;18.98;;;15.02;;
45728;SDS011;31439;53.512;10.206;2022-08-19T01:02:03;21.77;;;16.70;;
45728;SDS011;31439;53.512;10.206;2022-08-19T01:04:29;23.13;;;18.05;;
45728;SDS011;31439;53.512;10.206;2022-08-19T01:06:55;25.10;;;19.13;;
45728;SDS011;31439;53.512;10.206;2022-08-19T01:09:22;24.80;;;20.15;;
45728;SDS011;31439;53.512;10.206;2022-08-19T01:11:47;26.63;;;20.20;;
45728;SDS011;31439;53.512;10.206;2022-08-19T01:14:14;25.27;;;19.42;;
45728;SDS011;31439;53.512;10.206;2022-08-19T01:16:42;28.88;;;20.50;;
45728;SDS011;31439;53.512;10.206;2022-08-19T01:19:24;29.52;;;20.58;;
45728;SDS011;31439;53.512;10.206;2022-08-19T01:22:03;31.08;;;21.92;;
45728;SDS011;31439;53.512;10.206;2022-08-19T01:24:44;27.23;;;21.13;;
45728;SDS011;31439;53.512;10.206;2022-08-19T01:27:10;36.90;;;24.83;;
45728;SDS011;31439;53.512;10.206;2022-08-19T01:29:38;34.92;;;25.40;;
45728;SDS011;31439;53.512;10.206;2022-08-19T01:32:06;40.90;;;29.83;;
45728;SDS011;31439;53.512;10.206;2022-08-19T01:34:33;49.20;;;34.45;;
45728;SDS011;31439;53.512;10.206;2022-08-19T01:36:59;48.42;;;34.25;;
45728;SDS011;31439;53.512;10.206;2022-08-19T01:39:30;45.35;;;31.70;;
45728;SDS011;31439;53.512;10.206;2022-08-19T01:41:55;43.92;;;30.55;;
45728;SDS011;31439;53.512;10.206;2022-08-19T01:44:21;42.17;;;29.52;;
45728;SDS011;31439;53.512;10.206;2022-08-19T01:46:49;37.30;;;28.10;;
45728;SDS011;31439;53.512;10.206;2022-08-19T01:49:20;39.95;;;27.27;;
45728;SDS011;31439;53.512;10.206;2022-08-19T01:51:47;38.25;;;26.50;;
45728;SDS011;31439;53.512;10.206;2022-08-19T01:54:15;37.80;;;25.65;;
45728;SDS011;31439;53.512;10.206;2022-08-19T01:56:42;34.00;;;24.67;;
45728;SDS011;31439;53.512;10.206;2022-08-19T01:59:09;33.47;;;24.15;;
45728;SDS011;31439;53.512;10.206;2022-08-19T02:01:39;35.78;;;23.45;;
45728;SDS011;31439;53.512;10.206;2022-08-19T02:04:05;34.53;;;22.80;;
45728;SDS011;31439;53.512;10.206;2022-08-19T02:06:30;35.10;;;23.45;;
45728;SDS011;31439;53.512;10.206;2022-08-19T02:08:57;35.22;;;22.42;;
45728;SDS011;31439;53.512;10.206;2022-08-19T02:11:30;30.90;;;22.95;;
45728;SDS011;31439;53.512;10.206;2022-08-19T02:13:58;31.83;;;22.75;;
45728;SDS011;31439;53.512;10.206;2022-08-19T02:16:25;29.80;;;21.27;;
45728;SDS011;31439;53.512;10.206;2022-08-19T02:18:50;36.22;;;22.30;;
45728;SDS011;31439;53.512;10.206;2022-08-19T02:21:17;32.25;;;22.35;;
45728;SDS011;31439;53.512;10.206;2022-08-19T02:23:44;34.42;;;21.10;;
45728;SDS011;31439;53.512;10.206;2022-08-19T02:26:11;28.23;;;20.17;;
45728;SDS011;31439;53.512;10.206;2022-08-19T02:28:37;31.05;;;21.25;;
45728;SDS011;31439;53.512;10.206;2022-08-19T02:31:08;28.83;;;20.13;;
45728;SDS011;31439;53.512;10.206;2022-08-19T02:33:39;27.48;;;20.02;;
45728;SDS011;31439;53.512;10.206;2022-08-19T02:36:06;26.35;;;20.98;;
45728;SDS011;31439;53.512;10.206;2022-08-19T02:38:33;31.52;;;21.08;;
45728;SDS011;31439;53.512;10.206;2022-08-19T02:41:04;28.50;;;20.10;;
45728;SDS011;31439;53.512;10.206;2022-08-19T02:43:35;27.20;;;19.67;;
45728;SDS011;31439;53.512;10.206;2022-08-19T02:46:01;28.25;;;19.48;;
45728;SDS011;31439;53.512;10.206;2022-08-19T02:48:38;29.52;;;21.02;;
45728;SDS011;31439;53.512;10.206;2022-08-19T02:51:03;27.15;;;19.30;;
45728;SDS011;31439;53.512;10.206;2022-08-19T02:53:30;26.17;;;19.17;;
45728;SDS011;31439;53.512;10.206;2022-08-19T02:55:56;28.73;;;20.13;;
45728;SDS011;31439;53.512;10.206;2022-08-19T02:58:21;25.80;;;19.10;;
45728;SDS011;31439;53.512;10.206;2022-08-19T03:00:49;24.40;;;19.40;;
45728;SDS011;31439;53.512;10.206;2022-08-19T03:03:16;25.10;;;17.98;;
45728;SDS011;31439;53.512;10.206;2022-08-19T03:05:44;25.88;;;18.75;;
45728;SDS011;31439;53.512;10.206;2022-08-19T03:08:10;29.65;;;20.20;;
45728;SDS011;31439;53.512;10.206;2022-08-19T03:10:43;27.83;;;18.98;;
45728;SDS011;31439;53.512;10.206;2022-08-19T03:13:15;26.73;;;19.05;;
45728;SDS011;31439;53.512;10.206;2022-08-19T03:15:42;26.30;;;18.42;;
45728;SDS011;31439;53.512;10.206;2022-08-19T03:18:10;24.40;;;18.65;;
45728;SDS011;31439;53.512;10.206;2022-08-19T03:20:43;26.17;;;18.52;;
45728;SDS011;31439;53.512;10.206;2022-08-19T03:23:10;25.95;;;18.63;;
45728;SDS011;31439;53.512;10.206;2022-08-19T03:25:41;25.02;;;17.52;;
45728;SDS011;31439;53.512;10.206;2022-08-19T03:28:09;24.15;;;17.40;;
45728;SDS011;31439;53.512;10.206;2022-08-19T03:30:36;24.73;;;18.83;;
45728;SDS011;31439;53.512;10.206;2022-08-19T03:33:04;27.10;;;18.35;;
45728;SDS011;31439;53.512;10.206;2022-08-19T03:35:30;24.52;;;17.65;;
45728;SDS011;31439;53.512;10.206;2022-08-19T03:37:56;25.40;;;17.23;;
45728;SDS011;31439;53.512;10.206;2022-08-19T03:40:24;25.40;;;18.00;;
45728;SDS011;31439;53.512;10.206;2022-08-19T03:42:50;26.60;;;17.20;;
45728;SDS011;31439;53.512;10.206;2022-08-19T03:45:16;25.80;;;17.40;;
45728;SDS011;31439;53.512;10.206;2022-08-19T03:47:41;29.35;;;18.75;;
45728;SDS011;31439;53.512;10.206;2022-08-19T03:50:07;25.85;;;17.13;;
45728;SDS011;31439;53.512;10.206;2022-08-19T03:52:34;26.02;;;17.77;;
45728;SDS011;31439;53.512;10.206;2022-08-19T03:55:01;30.45;;;18.70;;
45728;SDS011;31439;53.512;10.206;2022-08-19T03:57:27;25.10;;;17.05;;
45728;SDS011;31439;53.512;10.206;2022-08-19T03:59:53;26.85;;;18.27;;
45728;SDS011;31439;53.512;10.206;2022-08-19T04:02:18;28.95;;;18.92;;
45728;SDS011;31439;53.512;10.206;2022-08-19T04:04:44;33.13;;;19.50;;
45728;SDS011;31439;53.512;10.206;2022-08-19T04:07:10;28.63;;;18.65;;
45728;SDS011;31439;53.512;10.206;2022-08-19T04:09:40;28.58;;;19.38;;
45728;SDS011;31439;53.512;10.206;2022-08-19T04:12:06;31.70;;;19.55;;
45728;SDS011;31439;53.512;10.206;2022-08-19T04:14:33;34.15;;;19.50;;
45728;SDS011;31439;53.512;10.206;2022-08-19T04:16:59;38.60;;;20.55;;
45728;SDS011;31439;53.512;10.206;2022-08-19T04:19:29;34.47;;;20.65;;
45728;SDS011;31439;53.512;10.206;2022-08-19T04:21:55;35.75;;;20.02;;
45728;SDS011;31439;53.512;10.206;2022-08-19T04:24:21;32.90;;;19.73;;
45728;SDS011;31439;53.512;10.206;2022-08-19T04:26:47;36.45;;;20.92;;
45728;SDS011;31439;53.512;10.206;2022-08-19T04:29:15;37.55;;;21.17;;
45728;SDS011;31439;53.512;10.206;2022-08-19T04:31:50;35.95;;;21.83;;
45728;SDS011;31439;53.512;10.206;2022-08-19T04:34:19;40.42;;;21.67;;
45728;SDS011;31439;53.512;10.206;2022-08-19T04:36:49;37.17;;;21.52;;
45728;SDS011;31439;53.512;10.206;2022-08-19T04:39:17;38.17;;;21.30;;
45728;SDS011;31439;53.512;10.206;2022-08-19T04:42:08;34.97;;;20.40;;
45728;SDS011;31439;53.512;10.206;2022-08-19T04:44:52;37.58;;;21.15;;
45728;SDS011;31439;53.512;10.206;2022-08-19T04:47:17;32.60;;;20.33;;
45728;SDS011;31439;53.512;10.206;2022-08-19T04:49:43;33.38;;;19.88;;
45728;SDS011;31439;53.512;10.206;2022-08-19T04:52:09;30.85;;;19.02;;
45728;SDS011;31439;53.512;10.206;2022-08-19T04:54:35;34.38;;;20.83;;
45728;SDS011;31439;53.512;10.206;2022-08-19T04:57:00;35.75;;;21.00;;
45728;SDS011;31439;53.512;10.206;2022-08-19T04:59:26;35.55;;;21.20;;
45728;SDS011;31439;53.512;10.206;2022-08-19T05:01:51;33.97;;;20.50;;
45728;SDS011;31439;53.512;10.206;2022-08-19T05:04:18;32.47;;;21.75;;
45728;SDS011;31439;53.512;10.206;2022-08-19T05:06:46;34.65;;;22.08;;
45728;SDS011;31439;53.512;10.206;2022-08-19T05:09:12;31.88;;;21.45;;
45728;SDS011;31439;53.512;10.206;2022-08-19T05:11:39;35.20;;;22.10;;
45728;SDS011;31439;53.512;10.206;2022-08-19T05:14:06;37.83;;;21.95;;
45728;SDS011;31439;53.512;10.206;2022-08-19T05:16:33;36.80;;;23.00;;
45728;SDS011;31439;53.512;10.206;2022-08-19T05:18:59;39.83;;;22.70;;
45728;SDS011;31439;53.512;10.206;2022-08-19T05:21:43;41.67;;;24.13;;
45728;SDS011;31439;53.512;10.206;2022-08-19T05:24:28;37.45;;;24.02;;
45728;SDS011;31439;53.512;10.206;2022-08-19T05:26:59;41.70;;;24.75;;
45728;SDS011;31439;53.512;10.206;2022-08-19T05:29:27;40.13;;;25.17;;
45728;SDS011;31439;53.512;10.206;2022-08-19T05:31:53;40.15;;;25.27;;
45728;SDS011;31439;53.512;10.206;2022-08-19T05:34:20;41.40;;;25.98;;
45728;SDS011;31439;53.512;10.206;2022-08-19T05:36:49;41.10;;;25.33;;
45728;SDS011;31439;53.512;10.206;2022-08-19T05:39:17;42.47;;;25.63;;
45728;SDS011;31439;53.512;10.206;2022-08-19T05:41:46;41.88;;;25.27;;
45728;SDS011;31439;53.512;10.206;2022-08-19T05:44:14;40.90;;;24.95;;
45728;SDS011;31439;53.512;10.206;2022-08-19T05:46:42;43.00;;;25.40;;
45728;SDS011;31439;53.512;10.206;2022-08-19T05:49:11;40.72;;;24.83;;
45728;SDS011;31439;53.512;10.206;2022-08-19T05:51:38;43.47;;;25.40;;
45728;SDS011;31439;53.512;10.206;2022-08-19T05:54:04;41.10;;;26.80;;
45728;SDS011;31439;53.512;10.206;2022-08-19T05:56:32;42.08;;;26.02;;
45728;SDS011;31439;53.512;10.206;2022-08-19T05:59:01;46.72;;;27.00;;
45728;SDS011;31439;53.512;10.206;2022-08-19T06:01:29;43.35;;;26.25;;
45728;SDS011;31439;53.512;10.206;2022-08-19T06:03:54;48.00;;;27.42;;
45728;SDS011;31439;53.512;10.206;2022-08-19T06:06:20;47.97;;;26.40;;
45728;SDS011;31439;53.512;10.206;2022-08-19T06:08:46;42.45;;;25.92;;
45728;SDS011;31439;53.512;10.206;2022-08-19T06:11:22;48.92;;;26.35;;
45728;SDS011;31439;53.512;10.206;2022-08-19T06:14:01;43.33;;;26.13;;
45728;SDS011;31439;53.512;10.206;2022-08-19T06:16:29;44.83;;;25.55;;
45728;SDS011;31439;53.512;10.206;2022-08-19T06:18:59;44.72;;;26.67;;
45728;SDS011;31439;53.512;10.206;2022-08-19T06:21:27;47.80;;;27.02;;
45728;SDS011;31439;53.512;10.206;2022-08-19T06:23:54;45.65;;;25.48;;
45728;SDS011;31439;53.512;10.206;2022-08-19T06:26:21;42.17;;;25.95;;
45728;SDS011;31439;53.512;10.206;2022-08-19T06:28:47;47.90;;;25.15;;
45728;SDS011;31439;53.512;10.206;2022-08-19T06:31:13;42.67;;;25.63;;
45728;SDS011;31439;53.512;10.206;2022-08-19T06:33:41;44.03;;;24.75;;
45728;SDS011;31439;53.512;10.206;2022-08-19T06:36:08;41.13;;;24.00;;
45728;SDS011;31439;53.512;10.206;2022-08-19T06:38:41;39.40;;;24.23;;
45728;SDS011;31439;53.512;10.206;2022-08-19T06:41:06;37.90;;;25.00;;
45728;SDS011;31439;53.512;10.206;2022-08-19T06:43:33;43.40;;;25.90;;
45728;SDS011;31439;53.512;10.206;2022-08-19T06:45:58;42.20;;;26.33;;
45728;SDS011;31439;53.512;10.206;2022-08-19T06:48:26;42.67;;;24.67;;
45728;SDS011;31439;53.512;10.206;2022-08-19T06:50:51;42.50;;;25.73;;
45728;SDS011;31439;53.512;10.206;2022-08-19T06:53:17;40.72;;;24.75;;
45728;SDS011;31439;53.512;10.206;2022-08-19T06:55:44;36.63;;;23.35;;
45728;SDS011;31439;53.512;10.206;2022-08-19T06:58:10;35.40;;;23.15;;
45728;SDS011;31439;53.512;10.206;2022-08-19T07:00:36;34.25;;;22.63;;
45728;SDS011;31439;53.512;10.206;2022-08-19T07:03:02;36.97;;;23.42;;
45728;SDS011;31439;53.512;10.206;2022-08-19T07:05:28;36.55;;;23.90;;
45728;SDS011;31439;53.512;10.206;2022-08-19T07:07:56;45.13;;;24.67;;
45728;SDS011;31439;53.512;10.206;2022-08-19T07:10:22;40.65;;;24.50;;
45728;SDS011;31439;53.512;10.206;2022-08-19T07:12:48;38.33;;;25.02;;
45728;SDS011;31439;53.512;10.206;2022-08-19T07:15:15;38.35;;;25.88;;
45728;SDS011;31439;53.512;10.206;2022-08-19T07:17:41;38.67;;;23.33;;
45728;SDS011;31439;53.512;10.206;2022-08-19T07:20:08;43.55;;;25.00;;
45728;SDS011;31439;53.512;10.206;2022-08-19T07:22:34;40.08;;;23.98;;
45728;SDS011;31439;53.512;10.206;2022-08-19T07:25:01;36.22;;;23.20;;
45728;SDS011;31439;53.512;10.206;2022-08-19T07:27:28;36.85;;;22.95;;
45728;SDS011;31439;53.512;10.206;2022-08-19T07:29:54;39.55;;;24.17;;
45728;SDS011;31439;53.512;10.206;2022-08-19T07:32:20;40.00;;;24.02;;
45728;SDS011;31439;53.512;10.206;2022-08-19T07:34:46;40.33;;;23.60;;
45728;SDS011;31439;53.512;10.206;2022-08-19T07:37:11;37.05;;;23.30;;
45728;SDS011;31439;53.512;10.206;2022-08-19T07:39:37;38.35;;;24.02;;
45728;SDS011;31439;53.512;10.206;2022-08-19T07:42:07;44.80;;;25.88;;
45728;SDS011;31439;53.512;10.206;2022-08-19T07:44:34;41.90;;;24.00;;
45728;SDS011;31439;53.512;10.206;2022-08-19T07:47:00;44.13;;;25.80;;
45728;SDS011;31439;53.512;10.206;2022-08-19T07:49:27;43.17;;;26.63;;
45728;SDS011;31439;53.512;10.206;2022-08-19T07:51:54;44.38;;;25.42;;
45728;SDS011;31439;53.512;10.206;2022-08-19T07:54:23;45.70;;;27.00;;
45728;SDS011;31439;53.512;10.206;2022-08-19T07:56:51;48.92;;;27.13;;
45728;SDS011;31439;53.512;10.206;2022-08-19T07:59:18;43.38;;;25.77;;
45728;SDS011;31439;53.512;10.206;2022-08-19T08:01:45;48.78;;;28.90;;
45728;SDS011;31439;53.512;10.206;2022-08-19T08:04:12;45.42;;;28.60;;
45728;SDS011;31439;53.512;10.206;2022-08-19T08:06:56;45.90;;;28.25;;
45728;SDS011;31439;53.512;10.206;2022-08-19T08:09:41;50.85;;;28.23;;
45728;SDS011;31439;53.512;10.206;2022-08-19T08:12:13;51.53;;;29.40;;
45728;SDS011;31439;53.512;10.206;2022-08-19T08:14:48;57.05;;;30.83;;
45728;SDS011;31439;53.512;10.206;2022-08-19T08:17:17;50.28;;;29.13;;
45728;SDS011;31439;53.512;10.206;2022-08-19T08:19:45;49.85;;;27.30;;
45728;SDS011;31439;53.512;10.206;2022-08-19T08:22:11;45.28;;;27.90;;
45728;SDS011;31439;53.512;10.206;2022-08-19T08:25:06;49.92;;;29.20;;
45728;SDS011;31439;53.512;10.206;2022-08-19T08:27:37;49.47;;;27.65;;
45728;SDS011;31439;53.512;10.206;2022-08-19T08:30:05;46.88;;;28.23;;
45728;SDS011;31439;53.512;10.206;2022-08-19T08:32:35;44.30;;;26.88;;
45728;SDS011;31439;53.512;10.206;2022-08-19T08:35:03;47.53;;;28.10;;
45728;SDS011;31439;53.512;10.206;2022-08-19T08:37:29;43.75;;;27.27;;
45728;SDS011;31439;53.512;10.206;2022-08-19T08:39:55;52.67;;;28.55;;
45728;SDS011;31439;53.512;10.206;2022-08-19T08:42:26;51.90;;;27.95;;
45728;SDS011;31439;53.512;10.206;2022-08-19T08:45:00;47.92;;;28.88;;
45728;SDS011;31439;53.512;10.206;2022-08-19T08:47:30;44.70;;;27.13;;
45728;SDS011;31439;53.512;10.206;2022-08-19T08:50:08;44.50;;;27.05;;
45728;SDS011;31439;53.512;10.206;2022-08-19T08:52:41;43.90;;;26.92;;
45728;SDS011;31439;53.512;10.206;2022-08-19T08:55:12;42.40;;;27.65;;
45728;SDS011;31439;53.512;10.206;2022-08-19T09:00:18;40.30;;;26.05;;
45728;SDS011;31439;53.512;10.206;2022-08-19T09:02:46;39.22;;;24.10;;
45728;SDS011;31439;53.512;10.206;2022-08-19T09:05:12;38.88;;;25.95;;
45728;SDS011;31439;53.512;10.206;2022-08-19T09:07:45;40.17;;;24.92;;
45728;SDS011;31439;53.512;10.206;2022-08-19T09:16:11;41.70;;;25.23;;
45728;SDS011;31439;53.512;10.206;2022-08-19T09:20:48;42.90;;;24.15;;
45728;SDS011;31439;53.512;10.206;2022-08-19T09:23:14;36.63;;;23.35;;
45728;SDS011;31439;53.512;10.206;2022-08-19T09:25:40;37.25;;;23.63;;
45728;SDS011;31439;53.512;10.206;2022-08-19T09:28:06;35.50;;;22.83;;
45728;SDS011;31439;53.512;10.206;2022-08-19T09:30:33;35.80;;;22.95;;
45728;SDS011;31439;53.512;10.206;2022-08-19T09:33:04;39.20;;;22.15;;
45728;SDS011;31439;53.512;10.206;2022-08-19T09:35:31;39.78;;;22.20;;
45728;SDS011;31439;53.512;10.206;2022-08-19T09:37:58;34.15;;;22.05;;
45728;SDS011;31439;53.512;10.206;2022-08-19T09:40:28;36.67;;;21.45;;
45728;SDS011;31439;53.512;10.206;2022-08-19T09:42:55;34.80;;;21.45;;
45728;SDS011;31439;53.512;10.206;2022-08-19T09:45:22;30.35;;;20.10;;
45728;SDS011;31439;53.512;10.206;2022-08-19T09:47:49;32.22;;;20.77;;
45728;SDS011;31439;53.512;10.206;2022-08-19T09:50:16;33.03;;;21.65;;
45728;SDS011;31439;53.512;10.206;2022-08-19T09:52:43;38.30;;;23.50;;
45728;SDS011;31439;53.512;10.206;2022-08-19T09:55:09;35.75;;;21.73;;
45728;SDS011;31439;53.512;10.206;2022-08-19T09:57:36;36.58;;;21.25;;
45728;SDS011;31439;53.512;10.206;2022-08-19T10:00:05;33.97;;;21.08;;
45728;SDS011;31439;53.512;10.206;2022-08-19T10:02:33;34.33;;;20.65;;
45728;SDS011;31439;53.512;10.206;2022-08-19T10:04:59;35.28;;;20.77;;
45728;SDS011;31439;53.512;10.206;2022-08-19T10:07:46;32.28;;;21.17;;
45728;SDS011;31439;53.512;10.206;2022-08-19T10:10:12;35.85;;;21.77;;
45728;SDS011;31439;53.512;10.206;2022-08-19T10:12:38;34.22;;;20.73;;
45728;SDS011;31439;53.512;10.206;2022-08-19T10:15:05;35.75;;;19.40;;
45728;SDS011;31439;53.512;10.206;2022-08-19T10:17:31;31.40;;;20.60;;
45728;SDS011;31439;53.512;10.206;2022-08-19T10:20:00;36.30;;;20.20;;
45728;SDS011;31439;53.512;10.206;2022-08-19T10:22:29;35.17;;;19.95;;
45728;SDS011;31439;53.512;10.206;2022-08-19T10:25:03;32.00;;;19.98;;
45728;SDS011;31439;53.512;10.206;2022-08-19T10:27:29;31.10;;;20.58;;
45728;SDS011;31439;53.512;10.206;2022-08-19T10:29:55;34.22;;;19.70;;
45728;SDS011;31439;53.512;10.206;2022-08-19T10:32:24;33.40;;;19.60;;
45728;SDS011;31439;53.512;10.206;2022-08-19T10:34:50;36.75;;;19.92;;
45728;SDS011;31439;53.512;10.206;2022-08-19T10:37:17;30.23;;;18.83;;
45728;SDS011;31439;53.512;10.206;2022-08-19T10:39:44;33.22;;;21.52;;
45728;SDS011;31439;53.512;10.206;2022-08-19T10:42:12;31.40;;;20.23;;
45728;SDS011;31439;53.512;10.206;2022-08-19T10:44:38;34.38;;;21.38;;
45728;SDS011;31439;53.512;10.206;2022-08-19T10:47:04;35.00;;;21.58;;
45728;SDS011;31439;53.512;10.206;2022-08-19T10:49:30;35.08;;;20.73;;
45728;SDS011;31439;53.512;10.206;2022-08-19T10:51:57;35.88;;;20.45;;
45728;SDS011;31439;53.512;10.206;2022-08-19T10:54:41;30.77;;;19.20;;
45728;SDS011;31439;53.512;10.206;2022-08-19T10:57:25;33.33;;;19.92;;
45728;SDS011;31439;53.512;10.206;2022-08-19T10:59:55;35.42;;;19.83;;
45728;SDS011;31439;53.512;10.206;2022-08-19T11:02:21;32.58;;;20.25;;
45728;SDS011;31439;53.512;10.206;2022-08-19T11:04:47;36.30;;;20.42;;
45728;SDS011;31439;53.512;10.206;2022-08-19T11:07:15;37.28;;;21.08;;
45728;SDS011;31439;53.512;10.206;2022-08-19T11:09:41;35.00;;;20.02;;
45728;SDS011;31439;53.512;10.206;2022-08-19T11:12:08;37.13;;;20.50;;
45728;SDS011;31439;53.512;10.206;2022-08-19T11:14:34;31.33;;;19.90;;
45728;SDS011;31439;53.512;10.206;2022-08-19T11:17:01;30.65;;;18.75;;
45728;SDS011;31439;53.512;10.206;2022-08-19T11:19:28;32.28;;;20.33;;
45728;SDS011;31439;53.512;10.206;2022-08-19T11:21:54;37.75;;;21.38;;
45728;SDS011;31439;53.512;10.206;2022-08-19T11:24:21;33.13;;;20.83;;
45728;SDS011;31439;53.512;10.206;2022-08-19T11:26:49;37.55;;;20.50;;
45728;SDS011;31439;53.512;10.206;2022-08-19T11:29:17;32.15;;;19.77;;
45728;SDS011;31439;53.512;10.206;2022-08-19T11:31:45;32.58;;;20.10;;
45728;SDS011;31439;53.512;10.206;2022-08-19T11:34:14;33.55;;;20.77;;
45728;SDS011;31439;53.512;10.206;2022-08-19T11:36:42;35.53;;;20.13;;
45728;SDS011;31439;53.512;10.206;2022-08-19T11:39:13;37.45;;;20.13;;
45728;SDS011;31439;53.512;10.206;2022-08-19T11:42:16;31.05;;;20.15;;
45728;SDS011;31439;53.512;10.206;2022-08-19T11:45:04;37.72;;;20.40;;
45728;SDS011;31439;53.512;10.206;2022-08-19T11:47:33;32.17;;;19.17;;
45728;SDS011;31439;53.512;10.206;2022-08-19T11:49:59;36.42;;;19.77;;
45728;SDS011;31439;53.512;10.206;2022-08-19T11:52:28;30.38;;;20.27;;
45728;SDS011;31439;53.512;10.206;2022-08-19T11:54:54;36.53;;;21.33;;
45728;SDS011;31439;53.512;10.206;2022-08-19T11:57:23;33.85;;;21.60;;
45728;SDS011;31439;53.512;10.206;2022-08-19T11:59:51;32.38;;;21.25;;
45728;SDS011;31439;53.512;10.206;2022-08-19T12:02:17;35.28;;;22.08;;
45728;SDS011;31439;53.512;10.206;2022-08-19T12:04:46;32.47;;;20.02;;
45728;SDS011;31439;53.512;10.206;2022-08-19T12:07:15;32.40;;;20.83;;
45728;SDS011;31439;53.512;10.206;2022-08-19T12:09:40;33.80;;;21.50;;
45728;SDS011;31439;53.512;10.206;2022-08-19T12:12:06;36.85;;;22.85;;
45728;SDS011;31439;53.512;10.206;2022-08-19T12:14:35;37.10;;;22.05;;
45728;SDS011;31439;53.512;10.206;2022-08-19T12:17:00;35.92;;;21.88;;
45728;SDS011;31439;53.512;10.206;2022-08-19T12:19:35;31.48;;;21.75;;
45728;SDS011;31439;53.512;10.206;2022-08-19T12:22:04;31.48;;;21.33;;
45728;SDS011;31439;53.512;10.206;2022-08-19T12:24:34;29.73;;;21.00;;
45728;SDS011;31439;53.512;10.206;2022-08-19T12:26:59;32.80;;;21.10;;
45728;SDS011;31439;53.512;10.206;2022-08-19T12:29:26;31.45;;;20.67;;
45728;SDS011;31439;53.512;10.206;2022-08-19T12:31:55;33.22;;;20.73;;
45728;SDS011;31439;53.512;10.206;2022-08-19T12:34:29;32.67;;;21.30;;
45728;SDS011;31439;53.512;10.206;2022-08-19T12:36:58;29.90;;;20.08;;
45728;SDS011;31439;53.512;10.206;2022-08-19T12:39:29;29.45;;;19.08;;
45728;SDS011;31439;53.512;10.206;2022-08-19T12:41:56;32.47;;;19.85;;
45728;SDS011;31439;53.512;10.206;2022-08-19T12:44:22;27.10;;;19.15;;
45728;SDS011;31439;53.512;10.206;2022-08-19T12:46:51;26.30;;;17.73;;
45728;SDS011;31439;53.512;10.206;2022-08-19T12:49:17;26.83;;;15.43;;
45728;SDS011;31439;53.512;10.206;2022-08-19T12:51:45;19.95;;;14.13;;
45728;SDS011;31439;53.512;10.206;2022-08-19T12:54:11;19.42;;;13.30;;
45728;SDS011;31439;53.512;10.206;2022-08-19T12:56:39;24.33;;;14.40;;
45728;SDS011;31439;53.512;10.206;2022-08-19T12:59:05;23.33;;;16.08;;
45728;SDS011;31439;53.512;10.206;2022-08-19T13:01:33;19.42;;;13.07;;
45728;SDS011;31439;53.512;10.206;2022-08-19T13:03:58;20.50;;;15.07;;
45728;SDS011;31439;53.512;10.206;2022-08-19T13:06:25;21.77;;;15.60;;
45728;SDS011;31439;53.512;10.206;2022-08-19T13:08:53;21.90;;;14.50;;
45728;SDS011;31439;53.512;10.206;2022-08-19T13:11:22;19.77;;;16.52;;
45728;SDS011;31439;53.512;10.206;2022-08-19T13:13:51;20.67;;;16.05;;
45728;SDS011;31439;53.512;10.206;2022-08-19T13:16:18;20.00;;;15.02;;
45728;SDS011;31439;53.512;10.206;2022-08-19T13:18:46;19.90;;;14.43;;
45728;SDS011;31439;53.512;10.206;2022-08-19T13:21:17;20.38;;;14.35;;
45728;SDS011;31439;53.512;10.206;2022-08-19T13:23:44;18.80;;;15.00;;
45728;SDS011;31439;53.512;10.206;2022-08-19T13:26:13;20.67;;;15.50;;
45728;SDS011;31439;53.512;10.206;2022-08-19T13:28:43;19.33;;;14.50;;
45728;SDS011;31439;53.512;10.206;2022-08-19T13:31:32;18.77;;;15.20;;
45728;SDS011;31439;53.512;10.206;2022-08-19T13:34:19;20.20;;;15.00;;
45728;SDS011;31439;53.512;10.206;2022-08-19T13:36:48;19.75;;;15.00;;
45728;SDS011;31439;53.512;10.206;2022-08-19T13:39:14;20.63;;;14.25;;
45728;SDS011;31439;53.512;10.206;2022-08-19T13:41:43;18.13;;;13.73;;
45728;SDS011;31439;53.512;10.206;2022-08-19T13:44:12;18.92;;;12.23;;
45728;SDS011;31439;53.512;10.206;2022-08-19T13:46:38;17.25;;;13.77;;
45728;SDS011;31439;53.512;10.206;2022-08-19T13:49:07;20.85;;;14.82;;
45728;SDS011;31439;53.512;10.206;2022-08-19T13:51:33;21.88;;;14.80;;
45728;SDS011;31439;53.512;10.206;2022-08-19T13:54:02;17.55;;;13.93;;
45728;SDS011;31439;53.512;10.206;2022-08-19T13:56:30;16.50;;;13.20;;
45728;SDS011;31439;53.512;10.206;2022-08-19T13:58:56;19.73;;;14.00;;
45728;SDS011;31439;53.512;10.206;2022-08-19T14:01:25;16.02;;;12.07;;
45728;SDS011;31439;53.512;10.206;2022-08-19T14:03:51;17.55;;;12.43;;
45728;SDS011;31439;53.512;10.206;2022-08-19T14:06:20;14.77;;;12.63;;
45728;SDS011;31439;53.512;10.206;2022-08-19T14:08:50;15.38;;;13.18;;
45728;SDS011;31439;53.512;10.206;2022-08-19T14:11:17;18.65;;;13.60;;
45728;SDS011;31439;53.512;10.206;2022-08-19T14:13:43;17.80;;;13.02;;
45728;SDS011;31439;53.512;10.206;2022-08-19T14:16:10;16.00;;;13.10;;
45728;SDS011;31439;53.512;10.206;2022-08-19T14:18:37;15.75;;;12.50;;
45728;SDS011;31439;53.512;10.206;2022-08-19T14:21:04;17.00;;;12.55;;
45728;SDS011;31439;53.512;10.206;2022-08-19T14:23:31;16.77;;;13.07;;
45728;SDS011;31439;53.512;10.206;2022-08-19T14:26:10;16.27;;;13.10;;